Time;durP1;ratioP1;P1;durP2;ratioP2;P2;SDS_P1;SDS_P2;PMS_P1;PMS_P2;Temp;Humidity;BMP_temperature;BMP_pressure;BME280_temperature;BME280_humidity;BME280_pressure;Samples;Min_cycle;Max_cycle;Signal;HPM_P1;HPM_P2
2023/03/14 00:00:10;;;;;;;0.63;0.30;;;;;;;19.83;44.19;98889.25;4841245;29;98595;-73
2023/03/14 00:02:37;;;;;;;0.50;0.28;;;;;;;19.84;44.25;98899.09;4836109;29;96896;-73
2023/03/14 00:05:06;;;;;;;1.15;0.40;;;;;;;19.84;44.50;98890.09;4838068;29;96867;-74
2023/03/14 00:07:37;;;;;;;0.57;0.30;;;;;;;19.85;44.64;98884.44;4837430;29;97768;-74
2023/03/14 00:10:06;;;;;;;0.63;0.40;;;;;;;19.82;44.07;98876.69;4834355;29;97231;-73
2023/03/14 00:12:33;;;;;;;0.47;0.30;;;;;;;19.78;44.31;98886.34;4834757;29;96636;-74
2023/03/14 00:15:03;;;;;;;0.43;0.30;;;;;;;19.83;44.29;98874.81;4841604;29;96655;-74
2023/03/14 00:17:31;;;;;;;0.40;0.30;;;;;;;19.85;44.10;98861.81;4840071;29;96850;-74
2023/03/14 00:20:03;;;;;;;0.73;0.30;;;;;;;19.88;44.23;98878.56;4837820;29;97946;-74
2023/03/14 00:22:31;;;;;;;0.75;0.30;;;;;;;19.90;44.00;98875.63;4844677;29;97411;-74
2023/03/14 00:24:58;;;;;;;1.23;0.40;;;;;;;19.88;43.97;98875.81;4843449;29;97100;-74
2023/03/14 00:27:26;;;;;;;0.43;0.30;;;;;;;19.81;44.17;98883.19;4843615;29;98272;-73
2023/03/14 00:29:52;;;;;;;0.45;0.30;;;;;;;19.81;44.30;98876.91;4842568;29;98376;-74
2023/03/14 00:32:19;;;;;;;0.20;0.20;;;;;;;19.82;44.10;98878.59;4841340;29;96922;-74
2023/03/14 00:34:45;;;;;;;0.85;0.30;;;;;;;19.82;44.36;98884.03;4836297;29;97434;-74
2023/03/14 00:37:13;;;;;;;1.00;0.40;;;;;;;19.85;44.25;98897.22;4837154;29;98081;-74
2023/03/14 00:39:40;;;;;;;0.80;0.30;;;;;;;19.85;44.48;98889.88;4837823;29;96732;-74
2023/03/14 00:42:06;;;;;;;0.55;0.28;;;;;;;19.86;44.14;98880.66;4842234;29;96718;-74
2023/03/14 00:44:33;;;;;;;0.93;0.40;;;;;;;19.88;44.27;98881.28;4852116;28;97282;-73
2023/03/14 00:46:59;;;;;;;1.00;0.30;;;;;;;19.86;44.28;98885.28;4851658;28;97980;-74
2023/03/14 00:49:26;;;;;;;0.20;0.20;;;;;;;19.82;43.98;98894.94;4820000;29;98686;-74
2023/03/14 00:51:53;;;;;;;0.30;0.30;;;;;;;19.85;44.06;98908.94;4839140;29;97184;-73
2023/03/14 00:54:20;;;;;;;0.40;0.30;;;;;;;19.79;44.03;98906.25;4844435;29;96775;-73
2023/03/14 00:56:46;;;;;;;0.55;0.30;;;;;;;19.80;44.24;98899.75;4848819;29;96839;-73
2023/03/14 00:59:13;;;;;;;0.40;0.30;;;;;;;19.82;44.15;98900.38;4837068;29;96261;-73
2023/03/14 01:01:40;;;;;;;0.93;0.35;;;;;;;19.85;44.03;98906.22;4851104;28;97312;-73
2023/03/14 01:04:06;;;;;;;0.30;0.20;;;;;;;19.88;44.04;98908.53;4837301;29;96994;-73
2023/03/14 01:06:34;;;;;;;0.95;0.43;;;;;;;19.85;44.20;98900.78;4839719;29;96828;-73
2023/03/14 01:09:00;;;;;;;0.57;0.30;;;;;;;19.85;44.31;98905.38;4839583;29;97949;-75
2023/03/14 01:11:31;;;;;;;0.43;0.30;;;;;;;19.84;44.40;98904.56;4837313;28;96573;-73
2023/03/14 01:13:58;;;;;;;0.65;0.40;;;;;;;19.80;44.49;98897.03;4840683;29;97041;-74
2023/03/14 01:16:34;;;;;;;0.30;0.28;;;;;;;19.84;44.19;98903.72;4839939;29;97050;-73
2023/03/14 01:19:02;;;;;;;0.40;0.30;;;;;;;19.76;44.58;98902.06;4838442;28;97552;-75
2023/03/14 01:21:31;;;;;;;0.77;0.30;;;;;;;19.72;44.34;98898.09;4833444;29;96799;-74
2023/03/14 01:24:00;;;;;;;0.60;0.35;;;;;;;19.76;44.31;98903.97;4839405;29;97204;-73
2023/03/14 01:26:30;;;;;;;0.70;0.30;;;;;;;19.78;44.37;98910.88;4839325;28;96923;-74
2023/03/14 01:28:57;;;;;;;0.40;0.20;;;;;;;19.76;44.52;98903.97;4836112;29;97014;-74
2023/03/14 01:31:26;;;;;;;0.30;0.20;;;;;;;19.75;44.38;98905.84;4821800;29;96865;-74
2023/03/14 01:33:53;;;;;;;0.47;0.30;;;;;;;19.79;44.31;98901.66;4851370;28;96573;-73
2023/03/14 01:36:20;;;;;;;0.70;0.30;;;;;;;19.81;44.31;98885.09;4835158;29;97599;-73
2023/03/14 01:38:47;;;;;;;0.75;0.30;;;;;;;19.84;44.15;98888.22;4834713;29;97568;-73
2023/03/14 01:41:19;;;;;;;0.30;0.20;;;;;;;19.87;43.94;98876.03;4838681;28;97331;-74
2023/03/14 01:43:46;;;;;;;1.58;0.30;;;;;;;19.76;44.14;98874.84;4837149;29;97008;-73
2023/03/14 01:46:22;;;;;;;0.73;0.32;;;;;;;19.79;44.37;98865.41;4822101;29;99638;-73
2023/03/14 01:48:55;;;;;;;0.65;0.20;;;;;;;19.80;44.24;98870.63;4853965;28;99071;-74
2023/03/14 01:51:36;;;;;;;0.73;0.30;;;;;;;19.72;44.38;98861.88;4837561;29;97058;-73
2023/03/14 01:54:11;;;;;;;0.25;0.20;;;;;;;19.74;44.71;98862.50;4834584;29;97240;-73
2023/03/14 01:56:43;;;;;;;0.20;0.20;;;;;;;19.72;44.40;98861.88;4837414;29;98854;-73
2023/03/14 01:59:10;;;;;;;0.77;0.25;;;;;;;19.70;44.33;98855.81;4850401;29;100390;-76
2023/03/14 02:01:41;;;;;;;0.45;0.30;;;;;;;19.72;44.23;98845.53;4837904;29;96761;-74
2023/03/14 02:04:09;;;;;;;0.65;0.30;;;;;;;19.70;44.59;98847.63;4838484;29;97023;-74
2023/03/14 02:06:42;;;;;;;0.85;0.30;;;;;;;19.72;44.66;98846.38;4856201;28;99080;-73
2023/03/14 02:09:10;;;;;;;0.45;0.30;;;;;;;19.74;44.53;98849.72;4837449;29;100643;-74
2023/03/14 02:11:37;;;;;;;0.35;0.20;;;;;;;19.74;44.59;98852.44;4840144;29;96728;-73
2023/03/14 02:14:24;;;;;;;0.80;0.38;;;;;;;19.77;44.33;98856.59;4841155;29;96855;-75
2023/03/14 02:17:07;;;;;;;0.52;0.30;;;;;;;19.72;44.22;98849.09;4849295;28;100059;-74
2023/03/14 02:19:59;;;;;;;0.98;0.30;;;;;;;19.79;44.18;98847.16;4835208;29;96989;-73
2023/03/14 02:22:34;;;;;;;0.50;0.20;;;;;;;19.75;44.58;98848.66;4836624;29;97306;-73
2023/03/14 02:25:30;;;;;;;0.40;0.30;;;;;;;19.74;44.51;98843.41;4839699;29;97991;-74
2023/03/14 02:27:58;;;;;;;0.57;0.20;;;;;;;19.70;44.35;98840.28;4837633;29;98989;-73
2023/03/14 02:30:28;;;;;;;0.60;0.40;;;;;;;19.73;44.45;98847.19;4852079;28;97382;-74
2023/03/14 02:32:59;;;;;;;0.70;0.30;;;;;;;19.76;44.44;98844.88;4834867;29;96840;-74
2023/03/14 02:35:41;;;;;;;0.70;0.30;;;;;;;19.66;44.50;98837.16;4834853;29;96959;-74
2023/03/14 02:38:29;;;;;;;0.47;0.30;;;;;;;19.69;44.24;98854.97;4833526;29;97167;-74
2023/03/14 02:40:55;;;;;;;0.52;0.30;;;;;;;19.71;44.34;98847.41;4838592;29;97942;-73
2023/03/14 02:43:22;;;;;;;0.73;0.30;;;;;;;19.70;44.35;98848.47;4850063;28;96873;-73
2023/03/14 02:45:55;;;;;;;0.50;0.22;;;;;;;19.73;44.63;98852.66;4837294;29;97002;-74
2023/03/14 02:48:37;;;;;;;0.50;0.30;;;;;;;19.71;44.42;98839.25;4834473;29;96941;-74
2023/03/14 02:51:04;;;;;;;0.70;0.40;;;;;;;19.75;44.50;98845.09;4834197;29;99629;-73
2023/03/14 02:53:34;;;;;;;0.38;0.28;;;;;;;19.70;44.24;98836.75;4816700;29;96764;-73
2023/03/14 02:56:06;;;;;;;0.40;0.20;;;;;;;19.76;44.43;98835.88;4837400;29;97043;-73
2023/03/14 02:58:34;;;;;;;0.55;0.30;;;;;;;19.76;44.42;98833.97;4816239;29;96903;-73
2023/03/14 03:01:19;;;;;;;0.50;0.30;;;;;;;19.76;44.24;98833.97;4834054;29;96962;-74
2023/03/14 03:03:46;;;;;;;0.80;0.28;;;;;;;19.78;44.41;98831.88;4837101;29;97050;-74
2023/03/14 03:06:12;;;;;;;0.65;0.20;;;;;;;19.80;44.21;98826.22;4838368;29;96722;-73
2023/03/14 03:08:39;;;;;;;0.57;0.20;;;;;;;19.78;44.39;98831.88;4850616;28;99404;-74
2023/03/14 03:11:06;;;;;;;0.38;0.20;;;;;;;19.80;43.97;98828.94;4849432;29;99634;-74
2023/03/14 03:13:34;;;;;;;0.50;0.35;;;;;;;19.75;44.50;98836.91;4837774;29;96892;-74
2023/03/14 03:16:02;;;;;;;0.45;0.30;;;;;;;19.66;44.23;98839.91;4838292;29;96763;-73
2023/03/14 03:18:29;;;;;;;0.38;0.30;;;;;;;19.65;44.63;98838.22;4849328;29;100048;-74
2023/03/14 03:21:00;;;;;;;0.85;0.30;;;;;;;19.67;44.66;98838.00;4834977;29;97082;-73
2023/03/14 03:23:26;;;;;;;0.30;0.20;;;;;;;19.60;44.42;98838.03;4833894;29;96803;-74
2023/03/14 03:25:53;;;;;;;1.15;0.40;;;;;;;19.64;44.43;98839.28;4834362;29;97247;-73
2023/03/14 03:28:19;;;;;;;1.23;0.40;;;;;;;19.63;44.39;98825.88;4835240;29;98400;-74
2023/03/14 03:30:46;;;;;;;0.50;0.40;;;;;;;19.68;44.51;98831.50;4832508;29;99046;-73
2023/03/14 03:33:13;;;;;;;0.77;0.30;;;;;;;19.68;44.15;98826.06;4838952;29;97093;-74
2023/03/14 03:35:48;;;;;;;0.40;0.20;;;;;;;19.72;44.55;98826.47;4836678;29;97080;-74
2023/03/14 03:38:21;;;;;;;0.63;0.30;;;;;;;19.74;44.27;98827.09;4847691;28;99633;-74
2023/03/14 03:40:51;;;;;;;0.52;0.20;;;;;;;19.71;44.30;98832.97;4817962;29;97571;-73
2023/03/14 03:43:18;;;;;;;0.43;0.20;;;;;;;19.66;44.18;98830.88;4849562;28;97142;-73
2023/03/14 03:45:47;;;;;;;0.70;0.30;;;;;;;19.68;44.47;98840.50;4833815;29;97133;-73
2023/03/14 03:48:13;;;;;;;0.45;0.30;;;;;;;19.66;44.56;98834.44;4850304;28;99524;-75
2023/03/14 03:50:47;;;;;;;0.70;0.28;;;;;;;19.65;44.26;98829.22;4843215;29;96751;-74
2023/03/14 03:53:17;;;;;;;0.60;0.30;;;;;;;19.69;44.27;98816.84;4837029;29;96640;-73
2023/03/14 03:55:59;;;;;;;0.80;0.32;;;;;;;19.71;44.54;98816.63;4852530;28;96784;-73
2023/03/14 03:58:25;;;;;;;0.43;0.20;;;;;;;19.73;44.25;98819.97;4823316;29;100213;-76
2023/03/14 04:00:52;;;;;;;0.40;0.20;;;;;;;19.67;44.59;98817.06;4837578;29;97287;-75
2023/03/14 04:03:18;;;;;;;0.52;0.30;;;;;;;19.70;44.20;98818.50;4852698;28;96684;-74
2023/03/14 04:05:45;;;;;;;0.40;0.30;;;;;;;19.70;44.47;98813.06;4837140;29;97391;-74
2023/03/14 04:08:12;;;;;;;0.40;0.20;;;;;;;19.67;44.53;98811.59;4838829;29;98891;-74
2023/03/14 04:10:39;;;;;;;0.30;0.30;;;;;;;19.60;44.35;98804.53;4837489;29;98456;-74
2023/03/14 04:13:08;;;;;;;0.30;0.10;;;;;;;19.56;44.68;98811.47;4852331;28;97196;-73
2023/03/14 04:15:37;;;;;;;0.40;0.22;;;;;;;19.56;44.27;98804.13;4837129;29;96794;-73
2023/03/14 04:18:11;;;;;;;0.50;0.30;;;;;;;19.57;44.43;98800.34;4842102;29;98497;-73
2023/03/14 04:20:37;;;;;;;0.63;0.20;;;;;;;19.60;44.40;98793.63;4837195;29;99879;-73
2023/03/14 04:23:04;;;;;;;0.20;0.20;;;;;;;19.55;44.51;98807.91;4838966;28;96819;-75
2023/03/14 04:25:31;;;;;;;0.88;0.32;;;;;;;19.57;44.38;98807.69;4837178;29;97190;-73
2023/03/14 04:28:03;;;;;;;0.30;0.20;;;;;;;19.64;44.67;98812.03;4861148;28;96936;-74
2023/03/14 04:30:30;;;;;;;0.77;0.30;;;;;;;19.64;44.39;98816.66;4850959;28;98152;-75
2023/03/14 04:33:16;;;;;;;0.50;0.20;;;;;;;19.59;44.70;98811.84;4852137;28;96861;-74
2023/03/14 04:35:54;;;;;;;0.40;0.28;;;;;;;19.60;44.29;98815.41;4855111;28;96987;-73
2023/03/14 04:38:21;;;;;;;0.80;0.30;;;;;;;19.67;44.54;98806.16;4843062;29;96819;-74
2023/03/14 04:40:48;;;;;;;1.08;0.40;;;;;;;19.68;44.62;98801.56;4835717;29;98308;-74
2023/03/14 04:43:17;;;;;;;0.55;0.30;;;;;;;19.73;44.23;98795.44;4836525;29;96701;-74
2023/03/14 04:45:53;;;;;;;0.40;0.20;;;;;;;19.72;44.15;98796.50;4819990;29;96891;-75
2023/03/14 04:48:20;;;;;;;0.40;0.22;;;;;;;19.69;44.54;98786.88;4842051;29;96769;-74
2023/03/14 04:50:47;;;;;;;0.45;0.25;;;;;;;19.70;44.13;98788.56;4820097;29;99010;-74
2023/03/14 04:53:16;;;;;;;0.55;0.30;;;;;;;19.73;44.71;98788.13;4819053;29;96804;-73
2023/03/14 04:55:51;;;;;;;0.20;0.20;;;;;;;19.77;44.48;98786.63;4839308;29;96718;-73
2023/03/14 04:58:19;;;;;;;0.30;0.20;;;;;;;19.73;44.29;98781.84;4837094;29;99444;-75
2023/03/14 05:00:48;;;;;;;0.30;0.22;;;;;;;19.73;44.20;98777.22;4850190;28;96674;-74
2023/03/14 05:03:44;;;;;;;0.90;0.40;;;;;;;19.73;44.16;98784.56;4801698;29;96963;-73
2023/03/14 05:06:31;;;;;;;0.45;0.35;;;;;;;19.74;43.89;98778.91;4837235;29;96914;-75
2023/03/14 05:09:06;;;;;;;0.95;0.40;;;;;;;19.74;44.31;98789.78;4836125;29;99300;-73
2023/03/14 05:11:47;;;;;;;0.95;0.30;;;;;;;19.74;44.19;98786.22;4851251;28;98432;-74
2023/03/14 05:14:36;;;;;;;0.30;0.20;;;;;;;19.74;44.25;98786.22;4836772;29;97243;-73
2023/03/14 05:17:16;;;;;;;0.40;0.30;;;;;;;19.72;44.04;98791.06;4838665;29;96788;-74
2023/03/14 05:20:12;;;;;;;0.25;0.20;;;;;;;19.73;44.15;98785.38;4838544;29;97852;-73
2023/03/14 05:22:57;;;;;;;0.75;0.30;;;;;;;19.78;44.17;98782.84;4835866;29;97176;-73
2023/03/14 05:25:44;;;;;;;0.30;0.20;;;;;;;19.76;44.16;98786.84;4837670;29;97174;-74
2023/03/14 05:28:28;;;;;;;0.40;0.20;;;;;;;19.78;44.10;98787.47;4837077;29;96854;-74
2023/03/14 05:31:07;;;;;;;0.90;0.30;;;;;;;19.76;44.17;98781.41;4834923;29;96853;-74
2023/03/14 05:33:53;;;;;;;0.10;0.10;;;;;;;19.79;44.12;98784.53;4838194;29;99737;-74
2023/03/14 05:36:40;;;;;;;0.55;0.20;;;;;;;19.75;44.18;98786.00;4832483;29;96864;-75
2023/03/14 05:39:34;;;;;;;0.35;0.20;;;;;;;19.78;44.24;98787.47;4835640;29;96648;-73
2023/03/14 05:42:30;;;;;;;0.20;0.20;;;;;;;19.77;44.18;98780.34;4835782;28;97400;-75
2023/03/14 05:45:17;;;;;;;0.30;0.22;;;;;;;19.78;44.28;98773.84;4826765;29;97788;-73
2023/03/14 05:48:06;;;;;;;0.20;0.20;;;;;;;19.77;43.97;98780.34;4836504;29;96854;-74
2023/03/14 05:50:57;;;;;;;0.77;0.35;;;;;;;19.80;44.24;98778.03;4832460;29;96737;-75
2023/03/14 05:53:36;;;;;;;0.40;0.30;;;;;;;19.81;44.35;98781.56;4837730;29;99907;-73
2023/03/14 05:56:32;;;;;;;0.57;0.28;;;;;;;19.82;44.65;98781.34;4788384;29;98699;-73
2023/03/14 05:59:24;;;;;;;0.47;0.20;;;;;;;19.81;44.04;98770.69;4836227;29;97722;-74
2023/03/14 06:02:10;;;;;;;0.57;0.32;;;;;;;19.75;44.04;98771.56;4836911;29;96898;-73
2023/03/14 06:04:47;;;;;;;0.30;0.20;;;;;;;19.78;44.31;98762.94;4820845;29;96702;-74
2023/03/14 06:07:14;;;;;;;0.30;0.20;;;;;;;19.75;44.00;98758.78;4843228;29;96854;-75
2023/03/14 06:09:42;;;;;;;0.20;0.20;;;;;;;19.78;44.41;98757.50;4854224;28;96850;-73
2023/03/14 06:12:08;;;;;;;0.50;0.25;;;;;;;19.78;44.47;98758.34;4836426;29;96988;-74
2023/03/14 06:14:40;;;;;;;0.60;0.20;;;;;;;19.83;44.12;98754.94;4834848;29;96746;-74
2023/03/14 06:17:07;;;;;;;0.30;0.30;;;;;;;19.87;43.99;98750.72;4818953;29;100162;-74
2023/03/14 06:19:42;;;;;;;0.37;0.20;;;;;;;19.81;44.10;98747.00;4834920;29;96807;-73
2023/03/14 06:22:11;;;;;;;0.47;0.30;;;;;;;19.78;44.04;98750.16;4834826;29;96835;-74
2023/03/14 06:24:39;;;;;;;0.40;0.20;;;;;;;19.79;43.98;98757.28;4850292;29;100317;-74
2023/03/14 06:27:06;;;;;;;0.30;0.30;;;;;;;19.83;44.04;98755.78;4834809;29;100213;-73
2023/03/14 06:29:33;;;;;;;0.38;0.30;;;;;;;19.82;43.98;98758.72;4816857;29;96765;-73
2023/03/14 06:32:01;;;;;;;0.73;0.30;;;;;;;19.81;44.17;98762.50;4837325;29;97110;-73
2023/03/14 06:34:27;;;;;;;0.63;0.30;;;;;;;19.75;44.19;98758.78;4833981;29;97668;-74
2023/03/14 06:36:54;;;;;;;0.35;0.20;;;;;;;19.77;44.30;98766.72;4841691;29;97731;-73
2023/03/14 06:39:20;;;;;;;0.60;0.20;;;;;;;19.84;44.27;98762.06;4835227;29;96914;-74
2023/03/14 06:41:52;;;;;;;0.20;0.20;;;;;;;19.84;44.29;98767.53;4849999;28;96799;-73
2023/03/14 06:44:19;;;;;;;0.30;0.20;;;;;;;19.86;44.08;98770.84;4834335;29;99184;-75
2023/03/14 06:46:46;;;;;;;0.20;0.20;;;;;;;19.89;44.14;98759.53;4837031;29;97931;-73
2023/03/14 06:49:13;;;;;;;0.20;0.17;;;;;;;19.87;44.13;98761.63;4847760;28;96752;-74
2023/03/14 06:51:40;;;;;;;0.20;0.20;;;;;;;19.86;43.84;98773.59;4835116;29;97462;-73
2023/03/14 06:54:08;;;;;;;0.30;0.20;;;;;;;19.90;44.03;98772.94;4852298;28;99966;-74
2023/03/14 06:56:35;;;;;;;0.30;0.20;;;;;;;19.92;44.07;98768.09;4833272;29;101135;-74
2023/03/14 06:59:01;;;;;;;0.52;0.22;;;;;;;19.90;44.01;98772.94;4818732;29;96760;-74
2023/03/14 07:01:32;;;;;;;0.20;0.20;;;;;;;19.85;43.88;98775.47;4834010;29;97271;-75
2023/03/14 07:04:04;;;;;;;0.63;0.20;;;;;;;19.85;44.09;98774.63;4837827;29;99505;-73
2023/03/14 07:06:33;;;;;;;0.43;0.22;;;;;;;19.85;44.27;98782.81;4840219;29;98637;-73
2023/03/14 07:09:00;;;;;;;0.70;0.20;;;;;;;19.84;43.99;98781.97;4837975;29;96771;-74
2023/03/14 07:11:29;;;;;;;0.63;0.20;;;;;;;19.86;44.14;98788.03;4834755;29;96866;-73
2023/03/14 07:13:56;;;;;;;0.30;0.20;;;;;;;19.82;43.84;98788.69;4834683;29;97722;-74
2023/03/14 07:16:22;;;;;;;0.30;0.20;;;;;;;19.79;44.08;98798.13;4833678;29;96787;-73
2023/03/14 07:18:51;;;;;;;0.38;0.20;;;;;;;19.80;44.38;98791.63;4837912;29;96835;-74
2023/03/14 07:21:18;;;;;;;0.40;0.30;;;;;;;19.86;44.03;98789.94;4833391;29;97246;-74
2023/03/14 07:23:45;;;;;;;0.90;0.30;;;;;;;19.85;44.01;98793.69;4848480;29;99135;-73
2023/03/14 07:26:13;;;;;;;0.47;0.20;;;;;;;19.91;43.99;98795.56;4837646;29;98523;-73
2023/03/14 07:28:45;;;;;;;0.10;0.10;;;;;;;19.86;43.94;98804.38;4833474;29;97197;-73
2023/03/14 07:31:15;;;;;;;0.82;0.22;;;;;;;19.83;44.36;98806.72;4831747;29;97433;-73
2023/03/14 07:33:42;;;;;;;0.73;0.38;;;;;;;19.81;44.44;98812.38;4835463;29;98906;-73
2023/03/14 07:36:09;;;;;;;0.13;0.10;;;;;;;19.79;44.02;98813.66;4838056;29;97689;-73
2023/03/14 07:38:37;;;;;;;0.20;0.10;;;;;;;19.82;44.10;98811.31;4836806;29;96584;-73
2023/03/14 07:41:22;;;;;;;0.30;0.20;;;;;;;19.90;43.94;98821.13;4839933;29;96836;-73
2023/03/14 07:44:07;;;;;;;0.28;0.20;;;;;;;19.87;44.15;98825.13;4832656;29;97877;-73
2023/03/14 07:46:34;;;;;;;0.43;0.20;;;;;;;19.84;44.01;98857.41;4850504;28;96758;-73
2023/03/14 07:49:01;;;;;;;0.30;0.20;;;;;;;19.84;44.15;98888.22;4837998;29;96699;-73
2023/03/14 07:51:27;;;;;;;0.40;0.20;;;;;;;19.91;44.18;98912.69;4833106;29;96831;-75
2023/03/14 07:53:54;;;;;;;0.22;0.20;;;;;;;19.87;43.96;98927.81;4837853;29;96803;-73
2023/03/14 07:56:20;;;;;;;0.50;0.20;;;;;;;19.85;44.06;98943.53;4846429;29;97228;-73
2023/03/14 07:58:47;;;;;;;0.30;0.20;;;;;;;19.84;44.02;98944.59;4857182;28;97350;-73
2023/03/14 08:01:13;;;;;;;0.38;0.20;;;;;;;19.87;44.36;98955.88;4848158;29;97089;-74
2023/03/14 08:03:40;;;;;;;0.10;0.10;;;;;;;19.82;43.98;98958.41;4836819;29;97671;-73
2023/03/14 08:06:06;;;;;;;0.20;0.20;;;;;;;19.79;44.40;98969.75;4848624;28;98175;-73
2023/03/14 08:08:33;;;;;;;0.32;0.20;;;;;;;19.73;44.09;98973.31;4834137;29;96813;-73
2023/03/14 08:11:04;;;;;;;0.40;0.20;;;;;;;19.71;44.27;98983.59;4841491;29;97921;-73
2023/03/14 08:13:31;;;;;;;0.30;0.20;;;;;;;19.70;44.53;98986.53;4847385;29;97410;-73
2023/03/14 08:15:58;;;;;;;0.20;0.20;;;;;;;19.71;44.50;98993.66;4860861;28;97995;-73
2023/03/14 08:18:24;;;;;;;0.10;0.10;;;;;;;19.67;44.40;99004.13;4860127;28;97164;-73
2023/03/14 08:20:51;;;;;;;0.13;0.10;;;;;;;19.70;44.56;99011.03;4847498;29;96976;-74
2023/03/14 08:23:17;;;;;;;0.20;0.20;;;;;;;19.70;44.34;99011.88;4849671;29;98966;-74
2023/03/14 08:25:44;;;;;;;0.10;0.10;;;;;;;19.77;44.24;99029.03;4864725;28;99433;-73
2023/03/14 08:28:11;;;;;;;1.13;0.30;;;;;;;19.80;44.50;99022.34;4854483;28;96661;-73
2023/03/14 08:30:37;;;;;;;0.57;0.57;;;;;;;19.74;44.17;99032.19;4848341;29;98338;-72
2023/03/14 08:33:04;;;;;;;0.20;0.15;;;;;;;19.77;44.14;99044.56;4835783;29;96434;-73
2023/03/14 08:35:30;;;;;;;0.13;0.13;;;;;;;19.82;44.14;99059.22;4850279;28;100037;-73
2023/03/14 08:37:57;;;;;;;0.73;0.20;;;;;;;19.85;44.28;99064.22;4838720;29;96603;-73
2023/03/14 08:40:23;;;;;;;0.10;0.10;;;;;;;19.85;44.29;99074.28;4838963;29;96954;-73
2023/03/14 08:42:50;;;;;;;0.20;0.15;;;;;;;19.87;44.31;99080.38;4849328;29;97440;-73
2023/03/14 08:45:17;;;;;;;0.22;0.20;;;;;;;19.89;43.97;99087.28;4843298;29;97354;-73
2023/03/14 08:47:44;;;;;;;0.10;0.10;;;;;;;19.88;44.08;99099.22;4838814;29;96817;-73
2023/03/14 08:50:12;;;;;;;0.15;0.10;;;;;;;19.90;44.00;99116.19;4838068;29;97985;-73
2023/03/14 08:52:42;;;;;;;0.55;0.20;;;;;;;19.93;44.09;99114.94;4841861;29;100477;-72
2023/03/14 08:55:09;;;;;;;0.45;0.20;;;;;;;19.91;43.92;99125.22;4866981;28;97403;-72
2023/03/14 08:57:36;;;;;;;0.20;0.20;;;;;;;19.91;43.99;99126.03;4854379;28;97252;-73
2023/03/14 09:00:13;;;;;;;0.20;0.20;;;;;;;19.93;44.05;99139.47;4847592;29;96825;-73
2023/03/14 09:02:42;;;;;;;0.15;0.10;;;;;;;19.94;44.16;99141.13;4845936;29;97135;-72
2023/03/14 09:05:10;;;;;;;0.38;0.20;;;;;;;19.92;43.90;99154.13;4834685;29;96959;-73
2023/03/14 09:07:37;;;;;;;0.20;0.20;;;;;;;19.90;44.07;99158.94;4840241;29;96695;-74
2023/03/14 09:10:04;;;;;;;0.10;0.10;;;;;;;19.89;43.87;99168.16;4853802;28;96908;-73
2023/03/14 09:12:31;;;;;;;0.30;0.20;;;;;;;19.88;44.31;99185.56;4846130;29;96648;-73
2023/03/14 09:14:58;;;;;;;0.28;0.20;;;;;;;19.88;43.92;99193.75;4844622;29;97140;-73
2023/03/14 09:17:24;;;;;;;0.30;0.20;;;;;;;19.91;44.04;99210.50;4829988;29;97105;-73
2023/03/14 09:19:51;;;;;;;0.32;0.20;;;;;;;19.90;44.01;99224.34;4843377;29;96873;-74
2023/03/14 09:22:17;;;;;;;0.20;0.20;;;;;;;19.82;44.15;99235.44;4846182;29;96726;-73
2023/03/14 09:24:44;;;;;;;0.20;0.15;;;;;;;19.85;44.07;99259.53;4842766;29;96769;-73
2023/03/14 09:27:10;;;;;;;0.40;0.20;;;;;;;19.83;44.28;99270.66;4837858;29;97207;-73
2023/03/14 09:29:37;;;;;;;0.22;0.20;;;;;;;19.85;44.24;99286.78;4851458;29;96800;-73
2023/03/14 09:32:03;;;;;;;0.40;0.20;;;;;;;19.82;44.23;99300.81;4848179;28;97894;-73
2023/03/14 09:34:30;;;;;;;0.55;0.20;;;;;;;19.81;44.08;99307.31;4845766;29;97200;-72
2023/03/14 09:36:56;;;;;;;0.25;0.20;;;;;;;19.83;43.98;99318.84;4838766;29;96702;-72
2023/03/14 09:39:23;;;;;;;0.20;0.10;;;;;;;19.85;44.26;99336.66;4845643;29;97458;-74
2023/03/14 09:41:54;;;;;;;0.30;0.28;;;;;;;19.84;44.36;99339.59;4838876;28;97436;-73
2023/03/14 09:44:36;;;;;;;0.22;0.20;;;;;;;19.84;44.16;99348.59;4836881;29;97324;-73
2023/03/14 09:47:06;;;;;;;0.30;0.20;;;;;;;19.85;44.18;99365.78;4845618;28;97012;-73
2023/03/14 09:49:50;;;;;;;0.40;0.20;;;;;;;19.87;44.25;99374.59;4841409;29;96764;-73
2023/03/14 09:52:41;;;;;;;0.30;0.20;;;;;;;19.88;44.01;99388.03;4830814;29;98215;-73
2023/03/14 09:55:19;;;;;;;0.15;0.10;;;;;;;19.91;43.90;99394.94;4836611;29;97605;-73
2023/03/14 09:57:48;;;;;;;0.30;0.20;;;;;;;19.90;43.85;99415.06;4837867;29;96723;-74
2023/03/14 10:00:21;;;;;;;0.20;0.10;;;;;;;19.94;43.80;99419.06;4836183;29;96954;-72
2023/03/14 10:02:55;;;;;;;0.20;0.10;;;;;;;19.93;43.91;99422.81;4837962;29;97640;-73
2023/03/14 10:05:24;;;;;;;0.93;0.30;;;;;;;19.93;44.04;99439.19;4831404;29;96770;-73
2023/03/14 10:07:51;;;;;;;0.22;0.10;;;;;;;19.92;44.08;99459.28;4833625;29;98889;-73
2023/03/14 10:10:24;;;;;;;0.30;0.20;;;;;;;19.90;43.98;99470.41;4829319;29;97279;-73
2023/03/14 10:13:18;;;;;;;0.28;0.17;;;;;;;19.89;44.17;99482.34;4833666;29;97356;-73
2023/03/14 10:15:52;;;;;;;0.10;0.10;;;;;;;19.90;44.22;99491.34;4834671;29;97071;-73
2023/03/14 10:18:20;;;;;;;0.20;0.20;;;;;;;19.91;44.19;99503.94;4832991;29;98362;-73
2023/03/14 10:20:48;;;;;;;0.20;0.10;;;;;;;19.88;43.93;99516.06;4835610;29;97235;-73
2023/03/14 10:23:15;;;;;;;0.32;0.17;;;;;;;19.84;44.07;99527.59;4837263;29;97327;-72
2023/03/14 10:25:44;;;;;;;0.20;0.17;;;;;;;19.83;44.23;99536.78;4842605;29;96803;-73
2023/03/14 10:28:28;;;;;;;0.10;0.10;;;;;;;19.82;43.96;99546.84;4844914;28;97334;-73
2023/03/14 10:30:56;;;;;;;0.17;0.10;;;;;;;19.82;43.91;99559.63;4838245;29;97333;-73
2023/03/14 10:33:24;;;;;;;0.13;0.10;;;;;;;19.83;44.12;99573.06;4848466;29;96773;-73
2023/03/14 10:35:58;;;;;;;0.10;0.10;;;;;;;19.81;44.02;99590.66;4838512;29;96718;-73
2023/03/14 10:38:30;;;;;;;0.10;0.10;;;;;;;19.79;44.34;99592.72;4841024;29;96738;-72
2023/03/14 10:40:58;;;;;;;1.10;0.20;;;;;;;19.74;44.33;99608.81;4861016;28;96737;-70
